createdAt,value
2023-07-29T00:03:25.097Z,2.00
2023-07-29T00:08:27.953Z,1.50
2023-07-29T00:13:30.623Z,1.75
2023-07-29T00:18:33.538Z,2.08
2023-07-29T00:23:36.190Z,1.95
2023-07-29T00:28:38.869Z,1.70
2023-07-29T00:33:41.552Z,1.83
2023-07-29T00:38:44.221Z,1.60
2023-07-29T00:43:46.986Z,1.30
2023-07-29T00:48:50.160Z,1.60
2023-07-29T00:53:53.178Z,1.27
2023-07-29T00:59:00.195Z,1.52
2023-07-29T01:04:03.657Z,1.50
2023-07-29T01:09:10.496Z,1.92
2023-07-29T01:14:16.189Z,1.75
2023-07-29T01:19:52.654Z,1.50
2023-07-29T01:24:55.258Z,1.50
2023-07-29T01:29:58.518Z,1.63
2023-07-29T01:35:10.067Z,2.35
2023-07-29T01:40:12.995Z,2.50
2023-07-29T01:45:17.035Z,2.63
2023-07-29T01:50:20.991Z,2.30
2023-07-29T01:55:23.747Z,2.00
2023-07-29T02:00:26.401Z,2.17
2023-07-29T02:05:29.345Z,2.10
2023-07-29T02:10:32.080Z,1.90
2023-07-29T02:15:35.243Z,2.10
2023-07-29T02:20:40.228Z,2.33
2023-07-29T02:25:42.942Z,2.40
2023-07-29T02:30:46.382Z,2.42
2023-07-29T02:35:50.124Z,1.83
2023-07-29T02:40:52.772Z,1.52
2023-07-29T02:45:55.486Z,1.38
2023-07-29T02:50:58.154Z,1.35
2023-07-29T02:56:00.839Z,1.80
2023-07-29T03:01:07.969Z,1.70
2023-07-29T03:06:15.461Z,1.50
2023-07-29T03:11:18.464Z,2.30
2023-07-29T03:16:21.447Z,2.28
2023-07-29T03:21:30.469Z,2.65
2023-07-29T03:26:33.165Z,2.45
2023-07-29T03:31:36.053Z,2.33
2023-07-29T03:36:39.082Z,3.15
2023-07-29T03:41:41.859Z,1.92
2023-07-29T03:46:44.536Z,2.20
2023-07-29T03:51:47.595Z,1.92
2023-07-29T03:56:50.437Z,1.80
2023-07-29T04:01:53.057Z,1.90
2023-07-29T04:06:55.859Z,1.70
2023-07-29T04:11:58.618Z,1.40
2023-07-29T04:17:01.276Z,1.90
2023-07-29T04:22:04.049Z,1.65
2023-07-29T04:27:06.916Z,2.20
2023-07-29T04:32:09.554Z,1.60
2023-07-29T04:37:12.212Z,1.25
2023-07-29T04:42:14.937Z,1.75
2023-07-29T04:47:17.741Z,1.80
2023-07-29T04:52:21.143Z,1.73
2023-07-29T05:07:28.674Z,2.50
2023-07-29T05:12:31.427Z,2.30
2023-07-29T05:17:34.227Z,2.40
2023-07-29T05:22:36.862Z,2.38
2023-07-29T05:27:39.536Z,3.42
2023-07-29T05:32:42.444Z,2.67
2023-07-29T05:37:45.222Z,2.33
2023-07-29T05:42:49.237Z,3.10
2023-07-29T05:47:51.913Z,2.25
2023-07-29T05:52:55.144Z,2.63
2023-07-29T05:57:59.059Z,2.53
2023-07-29T06:03:02.168Z,2.20
2023-07-29T06:08:05.570Z,1.80
2023-07-29T06:13:08.361Z,2.13
2023-07-29T06:18:11.207Z,1.98
2023-07-29T06:23:14.501Z,1.45
2023-07-29T06:28:17.221Z,1.90
2023-07-29T06:33:20.169Z,1.83
2023-07-29T06:38:23.349Z,1.65
2023-07-29T06:43:25.984Z,1.83
2023-07-29T06:48:28.753Z,2.10
2023-07-29T06:53:33.807Z,1.67
2023-07-29T06:58:37.514Z,1.73
2023-07-29T07:03:40.348Z,1.90
2023-07-29T07:08:43.209Z,1.42
2023-07-29T07:13:45.838Z,2.15
2023-07-29T07:18:48.446Z,4.68
2023-07-29T07:23:51.921Z,2.65
2023-07-29T07:28:54.497Z,2.75
2023-07-29T07:33:57.126Z,2.40
2023-07-29T07:38:59.723Z,2.97
2023-07-29T07:44:02.576Z,3.53
2023-07-29T07:49:05.172Z,3.63
2023-07-29T07:54:08.034Z,4.50
2023-07-29T07:59:10.713Z,3.80
2023-07-29T08:04:13.490Z,4.40
2023-07-29T08:09:16.453Z,4.18
2023-07-29T08:14:19.062Z,5.13
2023-07-29T08:19:22.867Z,6.10
2023-07-29T08:24:25.609Z,7.93
2023-07-29T08:29:28.483Z,8.30
2023-07-29T08:34:31.201Z,8.52
2023-07-29T08:39:33.960Z,4.55
2023-07-29T08:44:46.968Z,3.80
2023-07-29T08:49:52.451Z,3.75
2023-07-29T08:54:55.233Z,3.97
2023-07-29T08:59:59.120Z,4.45
2023-07-29T09:05:03.199Z,4.88
2023-07-29T09:10:07.175Z,4.50
2023-07-29T09:15:10.646Z,4.53
2023-07-29T09:20:13.470Z,4.30
2023-07-29T09:25:17.792Z,4.30
2023-07-29T09:30:20.678Z,3.63
2023-07-29T09:35:25.239Z,3.30
2023-07-29T09:40:28.208Z,3.10
2023-07-29T09:45:31.052Z,4.00
2023-07-29T09:50:33.661Z,4.22
2023-07-29T09:55:36.472Z,4.20
2023-07-29T10:00:40.445Z,3.40
2023-07-29T10:05:43.390Z,2.85
2023-07-29T10:10:46.905Z,3.53
2023-07-29T10:15:50.257Z,2.90
2023-07-29T10:20:54.164Z,2.90
2023-07-29T10:26:07.121Z,1.42
2023-07-29T10:31:09.729Z,2.28
2023-07-29T10:36:13.572Z,2.65
2023-07-29T10:41:16.202Z,3.10
2023-07-29T10:46:23.894Z,2.20
2023-07-29T10:51:36.155Z,2.13
2023-07-29T10:56:42.978Z,2.67
2023-07-29T11:02:02.021Z,2.33
2023-07-29T11:07:11.865Z,3.10
2023-07-29T11:12:43.731Z,3.58
2023-07-29T11:17:57.854Z,3.20
2023-07-29T11:23:02.853Z,2.63
2023-07-29T11:28:07.417Z,3.40
2023-07-29T11:33:11.540Z,3.05
2023-07-29T11:38:19.039Z,2.78
2023-07-29T11:43:21.821Z,3.20
2023-07-29T11:48:35.007Z,3.17
2023-07-29T11:53:38.343Z,3.50
2023-07-29T11:58:41.106Z,3.15
2023-07-29T12:03:44.993Z,3.95
2023-07-29T12:08:48.233Z,4.32
2023-07-29T12:18:53.554Z,2.10
2023-07-29T12:23:58.184Z,2.03
2023-07-29T12:29:13.629Z,1.90
2023-07-29T12:34:23.217Z,2.63
2023-07-29T12:39:27.492Z,2.65
2023-07-29T12:44:35.003Z,2.50
2023-07-29T12:49:37.790Z,1.90
2023-07-29T12:54:41.607Z,1.92
2023-07-29T12:59:44.299Z,1.80
2023-07-29T13:04:47.247Z,2.05
2023-07-29T13:09:49.870Z,2.10
2023-07-29T13:14:52.538Z,2.63
2023-07-29T13:19:55.162Z,2.17
2023-07-29T13:24:57.891Z,2.45
2023-07-29T13:30:00.486Z,2.13
2023-07-29T13:35:03.204Z,2.97
2023-07-29T13:40:06.990Z,2.60
2023-07-29T13:45:10.371Z,2.58
2023-07-29T13:50:13.433Z,2.60
2023-07-29T13:55:16.180Z,2.85
2023-07-29T14:00:18.872Z,1.80
2023-07-29T14:05:21.608Z,2.55
2023-07-29T14:10:24.369Z,2.33
2023-07-29T14:15:27.029Z,2.30
2023-07-29T14:20:29.836Z,2.85
2023-07-29T14:25:32.443Z,2.80
2023-07-29T14:30:35.846Z,2.40
2023-07-29T14:35:38.537Z,2.78
2023-07-29T14:40:41.217Z,2.58
2023-07-29T14:45:43.950Z,2.92
2023-07-29T14:50:46.619Z,2.70
2023-07-29T14:55:49.276Z,2.22
2023-07-29T15:00:51.945Z,2.08
2023-07-29T15:05:54.605Z,1.92
2023-07-29T15:10:57.409Z,2.05
2023-07-29T15:16:00.104Z,1.67
2023-07-29T15:21:03.960Z,2.28
2023-07-29T15:26:06.605Z,1.98
2023-07-29T15:31:09.759Z,1.90
2023-07-29T15:36:12.368Z,1.77
2023-07-29T15:41:15.199Z,1.55
2023-07-29T15:46:17.882Z,1.70
2023-07-29T15:51:20.485Z,1.63
2023-07-29T15:56:23.145Z,1.60
2023-07-29T16:01:25.847Z,1.33
2023-07-29T16:06:28.584Z,1.70
2023-07-29T16:11:31.173Z,1.98
2023-07-29T16:16:33.903Z,1.70
2023-07-29T16:21:37.695Z,2.00
2023-07-29T16:26:40.488Z,1.90
2023-07-29T16:31:43.165Z,1.90
2023-07-29T16:36:45.884Z,1.60
2023-07-29T16:46:54.092Z,1.58
2023-07-29T16:51:56.827Z,1.85
2023-07-29T16:56:59.404Z,1.30
2023-07-29T17:02:02.533Z,1.50
2023-07-29T17:07:05.288Z,1.55
2023-07-29T17:12:08.099Z,1.25
2023-07-29T17:17:10.806Z,1.60
2023-07-29T17:22:13.360Z,1.27
2023-07-29T17:27:16.029Z,0.88
2023-07-29T17:32:18.648Z,1.10
2023-07-29T17:37:21.293Z,1.15
2023-07-29T17:42:24.081Z,1.20
2023-07-29T17:47:26.776Z,1.20
2023-07-29T17:52:29.473Z,1.38
2023-07-29T17:57:32.101Z,1.13
2023-07-29T18:02:34.905Z,1.00
2023-07-29T18:07:37.576Z,1.08
2023-07-29T18:12:41.006Z,1.38
2023-07-29T18:17:43.721Z,1.20
2023-07-29T18:22:49.754Z,1.27
2023-07-29T18:27:52.415Z,1.23
2023-07-29T18:32:55.514Z,1.13
2023-07-29T18:38:01.265Z,1.30
2023-07-29T18:43:03.974Z,1.27
2023-07-29T18:48:06.879Z,1.38
2023-07-29T18:53:09.671Z,1.20
2023-07-29T18:58:12.305Z,1.58
2023-07-29T19:03:15.739Z,1.45
2023-07-29T19:08:18.485Z,1.00
2023-07-29T19:13:22.253Z,1.25
2023-07-29T19:18:26.877Z,1.30
2023-07-29T19:23:29.544Z,1.00
2023-07-29T19:28:32.375Z,1.13
2023-07-29T19:33:35.177Z,1.50
2023-07-29T19:38:38.018Z,1.40
2023-07-29T19:43:40.755Z,1.25
2023-07-29T19:48:43.788Z,1.55
2023-07-29T19:53:46.419Z,1.60
2023-07-29T19:58:50.428Z,2.20
2023-07-29T20:03:54.387Z,2.40
2023-07-29T20:08:57.134Z,1.80
2023-07-29T20:13:59.871Z,1.75
2023-07-29T20:19:02.623Z,1.40
2023-07-29T20:24:06.215Z,1.08
2023-07-29T20:29:08.990Z,1.23
2023-07-29T20:34:11.630Z,1.15
2023-07-29T20:39:14.228Z,0.98
2023-07-29T20:44:16.909Z,1.60
2023-07-29T20:49:19.637Z,1.70
2023-07-29T20:54:22.302Z,0.98
2023-07-29T20:59:24.913Z,1.10
2023-07-29T21:04:27.539Z,1.00
2023-07-29T21:09:30.427Z,0.68
2023-07-29T21:14:33.219Z,1.17
2023-07-29T21:19:35.858Z,1.05
2023-07-29T21:24:38.710Z,1.13
2023-07-29T21:29:41.287Z,1.10
2023-07-29T21:34:44.758Z,1.40
2023-07-29T21:39:47.366Z,1.40
2023-07-29T21:44:49.926Z,1.10
2023-07-29T21:49:53.149Z,1.30
2023-07-29T21:54:55.728Z,1.00
2023-07-29T22:00:00.750Z,1.00
2023-07-29T22:12:09.589Z,1.38
2023-07-29T22:17:12.514Z,1.30
2023-07-29T22:22:15.087Z,1.25
2023-07-29T22:27:17.807Z,1.20
2023-07-29T22:32:20.491Z,1.70
2023-07-29T22:37:23.220Z,1.40
2023-07-29T22:42:25.912Z,1.45
2023-07-29T22:47:28.518Z,1.75
2023-07-29T22:52:31.344Z,1.52
2023-07-29T22:57:33.962Z,1.50
2023-07-29T23:02:36.733Z,1.67
2023-07-29T23:07:40.188Z,1.60
2023-07-29T23:12:42.934Z,1.65
2023-07-29T23:17:45.628Z,1.70
2023-07-29T23:22:48.261Z,1.42
2023-07-29T23:27:50.840Z,1.13
2023-07-29T23:32:53.594Z,1.27
2023-07-29T23:37:56.253Z,1.60
2023-07-29T23:42:58.891Z,1.60
2023-07-29T23:48:01.571Z,1.58
2023-07-29T23:53:04.261Z,1.23
2023-07-29T23:58:06.964Z,1.10
